createdAt,value
2023-02-23T00:02:07.422Z,95491.91
2023-02-23T00:04:35.339Z,95497.66
2023-02-23T00:07:01.899Z,95491.19
2023-02-23T00:09:35.221Z,95492.81
2023-02-23T00:12:07.605Z,95484.44
2023-02-23T00:14:35.055Z,95484.63
2023-02-23T00:17:01.795Z,95484.63
2023-02-23T00:19:28.381Z,95482.19
2023-02-23T00:21:54.886Z,95479.75
2023-02-23T00:24:22.062Z,95480.56
2023-02-23T00:26:51.143Z,95488.00
2023-02-23T00:29:20.713Z,95476.50
2023-02-23T00:31:48.642Z,95469.97
2023-02-23T00:34:20.882Z,95475.66
2023-02-23T00:36:50.714Z,95473.16
2023-02-23T00:39:29.421Z,95471.53
2023-02-23T00:42:00.127Z,95469.09
2023-02-23T00:44:26.619Z,95456.03
2023-02-23T00:46:53.224Z,95455.16
2023-02-23T00:49:21.888Z,95465.03
2023-02-23T00:51:48.473Z,95451.97
2023-02-23T00:54:16.734Z,95445.38
2023-02-23T00:56:43.462Z,95449.47
2023-02-23T00:59:10.386Z,95455.22
2023-02-23T01:01:38.495Z,95442.09
2023-02-23T01:04:06.220Z,95436.31
2023-02-23T01:06:32.881Z,95436.31
2023-02-23T01:08:59.353Z,95437.06
2023-02-23T01:11:28.032Z,95438.00
2023-02-23T01:13:57.058Z,95449.47
2023-02-23T01:16:28.639Z,95440.47
2023-02-23T01:18:58.324Z,95436.41
2023-02-23T01:21:29.897Z,95436.38
2023-02-23T01:23:57.258Z,95430.56
2023-02-23T01:26:25.874Z,95432.28
2023-02-23T01:28:54.843Z,95428.13
2023-02-23T01:31:23.521Z,95426.50
2023-02-23T01:33:58.037Z,95432.22
2023-02-23T01:36:31.263Z,95419.09
2023-02-23T01:39:00.016Z,95422.41
2023-02-23T01:41:28.708Z,95424.06
2023-02-23T01:44:04.124Z,95421.59
2023-02-23T01:46:35.235Z,95419.19
2023-02-23T01:49:03.836Z,95424.97
2023-02-23T01:51:32.849Z,95425.72
2023-02-23T01:54:07.321Z,95414.19
2023-02-23T01:56:37.211Z,95420.78
2023-02-23T01:59:07.014Z,95416.66
2023-02-23T02:01:33.631Z,95401.81
2023-02-23T02:04:02.489Z,95404.25
2023-02-23T02:06:30.049Z,95405.91
2023-02-23T02:09:06.282Z,95405.09
2023-02-23T02:11:36.690Z,95402.63
2023-02-23T02:14:13.353Z,95403.44
2023-02-23T02:17:14.912Z,95395.22
2023-02-23T02:20:06.456Z,95393.53
2023-02-23T02:22:51.030Z,95405.09
2023-02-23T02:25:42.247Z,95399.38
2023-02-23T02:28:30.307Z,95401.84
2023-02-23T02:31:24.062Z,95397.72
2023-02-23T02:34:00.371Z,95395.22
2023-02-23T02:36:58.077Z,95394.44
2023-02-23T02:39:53.554Z,95391.09
2023-02-23T02:42:31.650Z,95391.16
2023-02-23T02:45:07.787Z,95396.09
2023-02-23T02:47:39.422Z,95389.47
2023-02-23T02:50:14.886Z,95396.03
2023-02-23T02:52:47.560Z,95395.19
2023-02-23T02:55:26.453Z,95391.88
2023-02-23T02:57:57.334Z,95398.44
2023-02-23T03:00:51.120Z,95390.16
2023-02-23T03:03:54.908Z,95390.97
2023-02-23T03:07:02.291Z,95388.47
2023-02-23T03:10:10.096Z,95390.91
2023-02-23T03:13:04.490Z,95387.53
2023-02-23T03:16:05.591Z,95394.91
2023-02-23T03:19:06.960Z,95391.53
2023-02-23T03:22:16.030Z,95391.63
2023-02-23T03:25:10.987Z,95390.81
2023-02-23T03:28:06.356Z,95386.69
2023-02-23T03:31:01.942Z,95394.97
2023-02-23T03:34:04.890Z,95390.91
2023-02-23T03:36:52.271Z,95387.63
2023-02-23T03:39:56.829Z,95388.41
2023-02-23T03:42:46.357Z,95391.63
2023-02-23T03:45:35.485Z,95398.16
2023-02-23T03:48:23.370Z,95399.00
2023-02-23T03:51:12.095Z,95393.94
2023-02-23T03:54:25.577Z,95394.75
2023-02-23T03:57:11.825Z,95391.31
2023-02-23T04:00:01.407Z,95392.97
2023-02-23T04:02:46.600Z,95389.69
2023-02-23T04:05:35.947Z,95391.25
2023-02-23T04:08:23.658Z,95392.97
2023-02-23T04:11:19.329Z,95391.25
2023-02-23T04:13:49.182Z,95400.25
2023-02-23T04:16:15.821Z,95396.19
2023-02-23T04:18:42.846Z,95389.63
2023-02-23T04:21:09.422Z,95393.69
2023-02-23T04:23:37.525Z,95390.38
2023-02-23T04:26:05.116Z,95387.88
2023-02-23T04:28:31.599Z,95389.47
2023-02-23T04:30:58.306Z,95385.38
2023-02-23T04:33:25.467Z,95373.03
2023-02-23T04:35:55.021Z,95373.84
2023-02-23T04:38:22.402Z,95377.94
2023-02-23T04:40:49.050Z,95376.25
2023-02-23T04:43:15.749Z,95372.00
2023-02-23T04:45:42.383Z,95368.75
2023-02-23T04:48:09.012Z,95371.25
2023-02-23T04:50:35.582Z,95374.53
2023-02-23T04:53:03.920Z,95367.09
2023-02-23T04:55:30.359Z,95369.63
2023-02-23T04:58:00.715Z,95380.31
2023-02-23T05:00:29.360Z,95375.34
2023-02-23T05:02:57.310Z,95374.59
2023-02-23T05:05:23.857Z,95369.63
2023-02-23T05:07:50.675Z,95378.75
2023-02-23T05:10:17.184Z,95369.56
2023-02-23T05:12:43.756Z,95373.72
2023-02-23T05:15:11.110Z,95373.78
2023-02-23T05:17:39.415Z,95369.63
2023-02-23T05:20:06.374Z,95371.94
2023-02-23T05:22:33.995Z,95373.56
2023-02-23T05:25:01.509Z,95368.59
2023-02-23T05:27:28.059Z,95370.28
2023-02-23T05:29:54.543Z,95372.00
2023-02-23T05:32:21.195Z,95372.88
2023-02-23T05:34:47.885Z,95362.94
2023-02-23T05:37:14.497Z,95368.66
2023-02-23T05:39:41.082Z,95372.00
2023-02-23T05:42:07.555Z,95365.38
2023-02-23T05:44:34.154Z,95370.31
2023-02-23T05:47:00.969Z,95362.03
2023-02-23T05:49:27.465Z,95368.59
2023-02-23T05:51:53.958Z,95374.38
2023-02-23T05:54:20.430Z,95370.16
2023-02-23T05:56:47.393Z,95374.31
2023-02-23T05:59:14.306Z,95373.31
2023-02-23T06:01:41.550Z,95374.97
2023-02-23T06:04:08.176Z,95380.72
2023-02-23T06:06:35.261Z,95378.19
2023-02-23T06:09:04.472Z,95374.09
2023-02-23T06:11:31.130Z,95382.41
2023-02-23T06:13:59.441Z,95378.25
2023-02-23T06:16:27.324Z,95379.84
2023-02-23T06:18:53.996Z,95379.81
2023-02-23T06:21:21.366Z,95380.56
2023-02-23T06:23:47.931Z,95378.06
2023-02-23T06:26:14.448Z,95384.72
2023-02-23T06:28:41.041Z,95382.28
2023-02-23T06:31:07.680Z,95386.31
2023-02-23T06:33:34.645Z,95391.16
2023-02-23T06:36:01.262Z,95385.44
2023-02-23T06:38:28.003Z,95393.50
2023-02-23T06:40:54.531Z,95387.78
2023-02-23T06:43:23.174Z,95391.97
2023-02-23T06:45:50.172Z,95395.25
2023-02-23T06:48:17.548Z,95389.38
2023-02-23T06:50:44.247Z,95395.13
2023-02-23T06:53:10.772Z,95390.09
2023-02-23T06:55:37.301Z,95390.84
2023-02-23T06:58:04.963Z,95387.53
2023-02-23T07:00:31.488Z,95394.81
2023-02-23T07:02:59.991Z,95393.97
2023-02-23T07:05:26.852Z,95394.47
2023-02-23T07:07:53.323Z,95396.09
2023-02-23T07:10:19.855Z,95387.16
2023-02-23T07:12:46.814Z,95390.47
2023-02-23T07:15:17.805Z,95392.66
2023-02-23T07:17:45.078Z,95393.94
2023-02-23T07:20:12.949Z,95386.50
2023-02-23T07:22:40.077Z,95392.97
2023-02-23T07:25:07.287Z,95391.31
2023-02-23T07:27:33.843Z,95379.78
2023-02-23T07:30:00.461Z,95384.56
2023-02-23T07:32:27.123Z,95384.41
2023-02-23T07:34:54.049Z,95384.25
2023-02-23T07:37:21.466Z,95383.78
2023-02-23T07:39:48.091Z,95380.38
2023-02-23T07:42:14.567Z,95384.97
2023-02-23T07:44:41.073Z,95381.72
2023-02-23T07:47:07.569Z,95378.16
2023-02-23T07:49:34.262Z,95375.06
2023-02-23T07:52:00.778Z,95366.50
2023-02-23T07:54:27.400Z,95370.94
2023-02-23T07:56:53.945Z,95368.53
2023-02-23T07:59:20.680Z,95356.56
2023-02-23T08:01:47.282Z,95355.41
2023-02-23T08:04:14.131Z,95353.38
2023-02-23T08:06:40.738Z,95350.44
2023-02-23T08:09:07.544Z,95358.16
2023-02-23T08:11:34.326Z,95365.91
2023-02-23T08:14:01.045Z,95370.66
2023-02-23T08:16:29.153Z,95365.59
2023-02-23T08:18:59.758Z,95363.09
2023-02-23T08:21:29.894Z,95353.63
2023-02-23T08:23:59.062Z,95351.13
2023-02-23T08:26:26.197Z,95360.59
2023-02-23T08:28:54.343Z,95361.34
2023-02-23T08:31:23.933Z,95354.09
2023-02-23T08:33:52.378Z,95354.63
2023-02-23T08:36:19.044Z,95358.63
2023-02-23T08:38:45.859Z,95356.09
2023-02-23T08:41:12.604Z,95355.56
2023-02-23T08:43:39.346Z,95365.06
2023-02-23T08:46:07.003Z,95355.50
2023-02-23T08:48:34.149Z,95360.50
2023-02-23T08:51:01.015Z,95359.72
2023-02-23T08:53:29.835Z,95361.66
2023-02-23T08:56:00.755Z,95347.50
2023-02-23T08:58:30.488Z,95350.31
2023-02-23T09:00:58.499Z,95347.41
2023-02-23T09:03:26.384Z,95359.09
2023-02-23T09:05:53.393Z,95350.22
2023-02-23T09:08:20.815Z,95353.00
2023-02-23T09:10:47.572Z,95357.28
2023-02-23T09:13:15.441Z,95365.34
2023-02-23T09:15:42.894Z,95367.22
2023-02-23T09:18:17.471Z,95357.53
2023-02-23T09:20:45.273Z,95346.94
2023-02-23T09:23:12.614Z,95336.19
2023-02-23T09:25:45.440Z,95335.59
2023-02-23T09:28:13.729Z,95319.06
2023-02-23T09:30:42.048Z,95319.38
2023-02-23T09:33:08.957Z,95309.47
2023-02-23T09:35:36.377Z,95302.34
2023-02-23T09:38:04.909Z,95291.66
2023-02-23T09:40:42.948Z,95291.25
2023-02-23T09:43:21.310Z,95283.59
2023-02-23T09:45:48.921Z,95281.22
2023-02-23T09:48:23.674Z,95272.34
2023-02-23T09:50:52.390Z,95274.38
2023-02-23T09:53:21.816Z,95276.56
2023-02-23T09:55:48.750Z,95264.66
2023-02-23T09:58:23.689Z,95267.69
2023-02-23T10:01:05.173Z,95273.72
2023-02-23T10:03:34.417Z,95271.88
2023-02-23T10:06:06.358Z,95264.97
2023-02-23T10:09:04.029Z,95266.09
2023-02-23T10:11:41.906Z,95261.06
2023-02-23T10:14:26.917Z,95259.06
2023-02-23T10:16:56.581Z,95259.69
2023-02-23T10:19:29.905Z,95256.22
2023-02-23T10:22:03.537Z,95242.75
2023-02-23T10:24:35.449Z,95243.84
2023-02-23T10:27:12.579Z,95247.66
2023-02-23T10:30:01.525Z,95240.44
2023-02-23T10:33:04.921Z,95239.00
2023-02-23T10:35:32.392Z,95241.16
2023-02-23T10:38:00.785Z,95223.69
2023-02-23T10:40:29.800Z,95230.41
2023-02-23T10:42:57.909Z,95227.09
2023-02-23T10:45:26.732Z,95221.09
2023-02-23T10:48:06.400Z,95211.84
2023-02-23T10:50:33.618Z,95210.41
2023-02-23T10:53:18.640Z,95211.81
2023-02-23T10:55:46.367Z,95208.28
2023-02-23T10:58:18.358Z,95201.53
2023-02-23T11:00:55.668Z,95192.69
2023-02-23T11:03:57.536Z,95187.44
2023-02-23T11:06:27.916Z,95188.59
2023-02-23T11:08:56.198Z,95196.03
2023-02-23T11:11:26.366Z,95186.16
2023-02-23T11:13:52.915Z,95184.47
2023-02-23T11:16:23.943Z,95171.31
2023-02-23T11:19:19.772Z,95172.22
2023-02-23T11:21:50.793Z,95170.97
2023-02-23T11:24:30.871Z,95164.81
2023-02-23T11:27:00.343Z,95167.63
2023-02-23T11:29:35.434Z,95150.84
2023-02-23T11:32:15.226Z,95153.53
2023-02-23T11:34:43.421Z,95152.03
2023-02-23T11:37:23.035Z,95145.28
2023-02-23T11:39:58.414Z,95144.97
2023-02-23T11:42:33.488Z,95143.75
2023-02-23T11:45:16.232Z,95139.72
2023-02-23T11:47:49.722Z,95136.91
2023-02-23T11:50:29.397Z,95118.47
2023-02-23T11:52:58.547Z,95125.25
2023-02-23T11:55:25.730Z,95125.78
2023-02-23T11:57:53.281Z,95126.13
2023-02-23T12:00:27.355Z,95108.56
2023-02-23T12:03:01.048Z,95114.97
2023-02-23T12:05:34.040Z,95112.53
2023-02-23T12:08:07.164Z,95087.34
2023-02-23T12:10:46.361Z,95097.94
2023-02-23T12:13:30.565Z,95086.03
2023-02-23T12:16:20.468Z,95092.16
2023-02-23T12:19:20.537Z,95084.69
2023-02-23T12:22:03.175Z,95085.88
2023-02-23T12:24:57.606Z,95077.69
2023-02-23T12:27:34.481Z,95076.00
2023-02-23T12:30:25.925Z,95071.38
2023-02-23T12:32:58.193Z,95074.13
2023-02-23T12:35:43.652Z,95063.16
2023-02-23T12:38:44.438Z,95063.34
2023-02-23T12:41:16.329Z,95053.78
2023-02-23T12:44:15.388Z,95048.94
2023-02-23T12:46:51.151Z,95041.81
2023-02-23T12:49:41.826Z,95037.22
2023-02-23T12:52:25.945Z,95037.09
2023-02-23T12:54:52.572Z,95045.66
2023-02-23T12:57:49.814Z,95033.00
2023-02-23T13:00:30.992Z,95032.72
2023-02-23T13:03:22.227Z,95033.09
2023-02-23T13:06:01.733Z,95020.22
2023-02-23T13:09:14.099Z,95027.88
2023-02-23T13:12:24.750Z,95015.88
2023-02-23T13:15:19.683Z,95012.22
2023-02-23T13:18:13.531Z,95011.72
2023-02-23T13:20:56.289Z,95013.59
2023-02-23T13:23:28.505Z,95006.97
2023-02-23T13:25:58.110Z,95004.38
2023-02-23T13:28:48.429Z,95006.41
2023-02-23T13:31:25.058Z,94999.38
2023-02-23T13:33:53.656Z,94988.94
2023-02-23T13:36:21.145Z,94983.81
2023-02-23T13:39:18.505Z,94983.25
2023-02-23T13:42:28.050Z,94975.38
2023-02-23T13:45:06.436Z,94967.91
2023-02-23T13:47:50.690Z,94971.69
2023-02-23T13:50:37.915Z,94974.25
2023-02-23T13:53:07.711Z,94970.31
2023-02-23T13:55:49.755Z,94958.19
2023-02-23T13:58:19.391Z,94958.59
2023-02-23T14:00:54.039Z,94958.59
2023-02-23T14:03:24.432Z,94956.28
2023-02-23T14:05:57.831Z,94947.41
2023-02-23T14:08:32.877Z,94951.25
2023-02-23T14:10:59.525Z,94944.75
2023-02-23T14:13:45.351Z,94941.56
2023-02-23T14:16:18.688Z,94940.16
2023-02-23T14:18:57.462Z,94933.66
2023-02-23T14:21:29.892Z,94933.03
2023-02-23T14:24:14.010Z,94926.31
2023-02-23T14:26:45.832Z,94925.81
2023-02-23T14:29:14.944Z,94926.00
2023-02-23T14:31:57.696Z,94923.50
2023-02-23T14:35:02.319Z,94916.25
2023-02-23T14:37:32.475Z,94916.78
2023-02-23T14:40:12.506Z,94910.66
2023-02-23T14:42:40.456Z,94909.84
2023-02-23T14:45:28.693Z,94908.75
2023-02-23T14:48:05.101Z,94900.63
2023-02-23T14:50:34.559Z,94895.38
2023-02-23T14:53:02.203Z,94896.53
2023-02-23T14:55:31.280Z,94903.84
2023-02-23T14:57:58.395Z,94896.81
2023-02-23T15:00:32.791Z,94896.44
2023-02-23T15:03:12.738Z,94894.63
2023-02-23T15:05:48.484Z,94886.28
2023-02-23T15:08:21.401Z,94885.47
2023-02-23T15:10:53.497Z,94877.56
2023-02-23T15:13:29.805Z,94884.59
2023-02-23T15:15:58.003Z,94874.41
2023-02-23T15:18:30.439Z,94869.34
2023-02-23T15:20:57.977Z,94867.50
2023-02-23T15:23:25.224Z,94867.78
2023-02-23T15:25:52.809Z,94862.22
2023-02-23T15:28:29.691Z,94855.66
2023-02-23T15:31:00.283Z,94850.72
2023-02-23T15:33:30.540Z,94852.88
2023-02-23T15:36:06.393Z,94843.63
2023-02-23T15:38:43.333Z,94845.44
2023-02-23T15:41:21.366Z,94836.56
2023-02-23T15:43:48.456Z,94840.75
2023-02-23T15:46:24.239Z,94829.56
2023-02-23T15:48:52.861Z,94840.41
2023-02-23T15:51:24.736Z,94828.00
2023-02-23T15:53:51.773Z,94824.69
2023-02-23T15:56:29.962Z,94829.00
2023-02-23T15:59:02.222Z,94818.44
2023-02-23T16:01:30.818Z,94820.69
2023-02-23T16:04:28.969Z,94821.13
2023-02-23T16:07:07.587Z,94826.53
2023-02-23T16:09:38.029Z,94826.19
2023-02-23T16:12:11.328Z,94819.88
2023-02-23T16:14:46.451Z,94823.66
2023-02-23T16:17:35.037Z,94824.78
2023-02-23T16:20:18.904Z,94818.63
2023-02-23T16:22:46.375Z,94818.13
2023-02-23T16:25:15.587Z,94815.25
2023-02-23T16:27:43.126Z,94819.19
2023-02-23T16:30:23.697Z,94822.75
2023-02-23T16:33:23.216Z,94821.34
2023-02-23T16:36:10.440Z,94813.16
2023-02-23T16:38:39.223Z,94815.16
2023-02-23T16:41:12.786Z,94817.53
2023-02-23T16:43:39.236Z,94807.88
2023-02-23T16:46:06.190Z,94803.50
2023-02-23T16:48:33.086Z,94798.41
2023-02-23T16:50:59.595Z,94791.59
2023-02-23T16:53:26.127Z,94792.44
2023-02-23T16:55:54.262Z,94790.13
2023-02-23T16:58:24.766Z,94787.75
2023-02-23T17:00:52.264Z,94783.50
2023-02-23T17:03:24.534Z,94779.75
2023-02-23T17:05:51.594Z,94770.75
2023-02-23T17:08:18.434Z,94758.34
2023-02-23T17:10:48.174Z,94756.69
2023-02-23T17:13:19.114Z,94760.06
2023-02-23T17:15:53.882Z,94765.94
2023-02-23T17:20:59.522Z,94759.47
2023-02-23T17:23:28.141Z,94768.13
2023-02-23T17:25:56.203Z,94764.72
2023-02-23T17:28:23.253Z,94767.13
2023-02-23T17:30:49.979Z,94758.69
2023-02-23T17:33:17.339Z,94749.81
2023-02-23T17:35:44.206Z,94746.75
2023-02-23T17:38:11.280Z,94746.47
2023-02-23T17:40:38.058Z,94739.25
2023-02-23T17:43:07.587Z,94738.38
2023-02-23T17:45:34.118Z,94740.88
2023-02-23T17:48:00.769Z,94724.22
2023-02-23T17:50:28.218Z,94720.06
2023-02-23T17:52:55.038Z,94713.75
2023-02-23T17:55:22.626Z,94713.13
2023-02-23T17:57:49.939Z,94707.34
2023-02-23T18:00:18.163Z,94709.50
2023-02-23T18:02:45.702Z,94701.66
2023-02-23T18:05:13.737Z,94697.50
2023-02-23T18:07:40.516Z,94691.91
2023-02-23T18:10:07.305Z,94694.22
2023-02-23T18:12:34.167Z,94679.44
2023-02-23T18:15:00.762Z,94678.72
2023-02-23T18:17:27.406Z,94684.53
2023-02-23T18:19:54.163Z,94674.53
2023-02-23T18:22:20.809Z,94673.50
2023-02-23T18:24:47.582Z,94672.31
2023-02-23T18:27:14.682Z,94662.44
2023-02-23T18:29:41.200Z,94669.97
2023-02-23T18:32:08.187Z,94654.19
2023-02-23T18:34:35.906Z,94655.94
2023-02-23T18:37:03.494Z,94656.16
2023-02-23T18:39:31.838Z,94657.56
2023-02-23T18:42:00.000Z,94650.00
2023-02-23T18:44:27.521Z,94645.25
2023-02-23T18:46:55.081Z,94637.00
2023-02-23T18:49:24.830Z,94638.78
2023-02-23T18:51:51.819Z,94642.94
2023-02-23T18:54:19.032Z,94642.31
2023-02-23T18:56:47.956Z,94635.19
2023-02-23T18:59:15.041Z,94629.06
2023-02-23T19:01:45.202Z,94629.19
2023-02-23T19:04:13.228Z,94629.38
2023-02-23T19:06:42.870Z,94618.47
2023-02-23T19:09:12.681Z,94620.03
2023-02-23T19:11:41.133Z,94612.59
2023-02-23T19:14:10.958Z,94616.91
2023-02-23T19:16:38.338Z,94606.22
2023-02-23T19:19:06.733Z,94607.53
2023-02-23T19:21:33.816Z,94604.38
2023-02-23T19:24:02.471Z,94609.41
2023-02-23T19:26:30.201Z,94613.41
2023-02-23T19:28:57.867Z,94591.25
2023-02-23T19:31:26.085Z,94596.03
2023-02-23T19:33:55.036Z,94588.28
2023-02-23T19:36:23.981Z,94591.13
2023-02-23T19:38:50.694Z,94588.00
2023-02-23T19:41:21.103Z,94575.78
2023-02-23T19:43:47.997Z,94577.94
2023-02-23T19:46:17.227Z,94574.84
2023-02-23T19:48:48.547Z,94567.16
2023-02-23T19:51:15.078Z,94571.97
2023-02-23T19:53:41.614Z,94562.34
2023-02-23T19:56:12.159Z,94558.34
2023-02-23T19:58:39.335Z,94565.41
2023-02-23T20:01:17.308Z,94553.69
2023-02-23T20:03:45.266Z,94553.06
2023-02-23T20:06:13.484Z,94542.22
2023-02-23T20:08:41.206Z,94539.19
2023-02-23T20:11:08.257Z,94541.81
2023-02-23T20:13:35.480Z,94539.94
2023-02-23T20:16:13.939Z,94540.66
2023-02-23T20:18:41.481Z,94534.91
2023-02-23T20:21:13.912Z,94525.66
2023-02-23T20:23:41.614Z,94530.03
2023-02-23T20:26:11.076Z,94530.84
2023-02-23T20:28:38.480Z,94516.41
2023-02-23T20:31:14.965Z,94508.84
2023-02-23T20:33:42.031Z,94507.22
2023-02-23T20:36:09.274Z,94507.91
2023-02-23T20:38:36.105Z,94507.81
2023-02-23T20:41:04.364Z,94500.41
2023-02-23T20:43:31.469Z,94498.06
2023-02-23T20:46:00.883Z,94487.66
2023-02-23T20:48:28.893Z,94484.97
2023-02-23T20:50:57.474Z,94473.22
2023-02-23T20:53:25.426Z,94478.78
2023-02-23T20:55:53.471Z,94477.81
2023-02-23T20:58:25.654Z,94468.50
2023-02-23T21:01:07.124Z,94469.56
2023-02-23T21:03:35.463Z,94458.88
2023-02-23T21:06:02.121Z,94449.72
2023-02-23T21:08:31.251Z,94452.91
2023-02-23T21:10:57.931Z,94447.50
2023-02-23T21:13:26.610Z,94452.28
2023-02-23T21:16:01.678Z,94446.03
2023-02-23T21:18:28.946Z,94450.78
2023-02-23T21:20:57.173Z,94442.06
2023-02-23T21:23:24.943Z,94435.06
2023-02-23T21:25:53.231Z,94433.53
2023-02-23T21:28:20.886Z,94425.56
2023-02-23T21:30:48.188Z,94430.34
2023-02-23T21:33:15.090Z,94417.63
2023-02-23T21:35:41.728Z,94417.88
2023-02-23T21:38:08.506Z,94409.56
2023-02-23T21:40:35.771Z,94407.91
2023-02-23T21:43:06.615Z,94407.78
2023-02-23T21:45:33.381Z,94410.13
2023-02-23T21:48:00.141Z,94404.53
2023-02-23T21:50:27.046Z,94398.84
2023-02-23T21:52:55.702Z,94397.19
2023-02-23T21:55:22.759Z,94391.13
2023-02-23T21:57:50.903Z,94376.22
2023-02-23T22:00:19.217Z,94383.09
2023-02-23T22:02:46.651Z,94373.66
2023-02-23T22:05:14.754Z,94378.66
2023-02-23T22:07:42.036Z,94365.63
2023-02-23T22:10:09.319Z,94368.63
2023-02-23T22:12:35.960Z,94365.53
2023-02-23T22:15:07.006Z,94366.00
2023-02-23T22:17:34.096Z,94359.31
2023-02-23T22:20:01.158Z,94347.94
2023-02-23T22:22:28.154Z,94353.34
2023-02-23T22:24:54.784Z,94347.03
2023-02-23T22:27:22.268Z,94348.16
2023-02-23T22:29:48.932Z,94338.75
2023-02-23T22:32:17.557Z,94347.31
2023-02-23T22:34:44.262Z,94337.00
2023-02-23T22:37:11.102Z,94340.38
2023-02-23T22:39:41.875Z,94333.56
2023-02-23T22:42:12.738Z,94333.53
2023-02-23T22:44:39.373Z,94327.19
2023-02-23T22:47:06.545Z,94318.81
2023-02-23T22:49:34.942Z,94321.78
2023-02-23T22:52:01.547Z,94318.22
2023-02-23T22:54:28.601Z,94317.47
2023-02-23T22:56:55.966Z,94316.47
2023-02-23T22:59:22.577Z,94322.31
2023-02-23T23:01:50.322Z,94309.13
2023-02-23T23:04:17.361Z,94305.19
2023-02-23T23:06:44.183Z,94300.75
2023-02-23T23:09:12.085Z,94297.25
2023-02-23T23:11:44.526Z,94292.06
2023-02-23T23:14:12.378Z,94279.25
2023-02-23T23:16:48.174Z,94277.41
2023-02-23T23:19:17.834Z,94270.78
2023-02-23T23:21:46.082Z,94271.03
2023-02-23T23:24:16.118Z,94265.69
2023-02-23T23:26:44.590Z,94263.00
2023-02-23T23:29:13.333Z,94266.28
2023-02-23T23:31:45.857Z,94263.53
2023-02-23T23:34:13.262Z,94256.84
2023-02-23T23:36:46.121Z,94253.28
2023-02-23T23:39:16.480Z,94257.59
2023-02-23T23:41:46.057Z,94259.22
2023-02-23T23:44:13.361Z,94254.91
2023-02-23T23:46:45.086Z,94253.88
2023-02-23T23:49:16.615Z,94245.50
2023-02-23T23:51:45.716Z,94234.66
2023-02-23T23:54:14.468Z,94238.47
2023-02-23T23:56:41.363Z,94237.31
2023-02-23T23:59:11.202Z,94231.91
